Tiempo atmosférico en la estación meteorológica de Segorbe, Castelló/Castellón (460 m.)



Fecha
DESCASC
Temp. máxima en grados centígrados (hora)
DESCASC
Temp. mínima en grados centígrados (hora)
DESCASC
Temp. media en grados centígrados
DESCASC
Racha de viento máxima en m/sg (hora)
DESCASC
Velocidad máxima media en intervalos de 10 minutos(hora)
DESCASC
Precipitaciones diarias en mm
DESCASC
Precipitaciones de 00:00 a 06:00 en mm
DESCASC
Precipitaciones de 06:00 a 12:00 en mm
DESCASC
Precipitaciones de 12:00 a 18:00 en mm
DESCASC
Precipitaciones de 18:00 a 24:00 en mm
DESCASC
31-03-2020 12.6 (16:00) 4.8 (04:20) 8.7 5.83 (18:10) 2.5 (15:20) 34 9.2 20 4.2 0.6
30-03-2020 11.3 (03:00) 5.2 (23:50) 8.3 4.72 (02:40) 2.22 (16:50) 9 0 0.2 3.2 5.6
29-03-2020 21.2 (15:10) 3.3 (00:00) 12.3 8.06 (14:30) 2.78 (04:40) 0 0 0 0 0
28-03-2020 15.3 (13:40) 1 (00:00) 8.2 5.83 (11:30) 3.06 (04:50) 0 0 0 0 0
27-03-2020 9.5 (16:10) 1.5 (00:00) 5.5 5 (16:40) 2.78 (01:30) 1.6 0 0.4 1.2 0
26-03-2020 13.4 (12:50) 1.7 (00:00) 7.5 13.61 (15:00) 6.39 (10:00) 0.2 0 0 0.2 0
25-03-2020 7.5 (11:20) 5.2 (00:00) 6.3 4.17 (04:00) 2.22 (05:40) 3.2 1.2 0.8 1.2 0
24-03-2020 11 (00:00) 7.3 (00:00) 9.2 9.17 (06:10) 2.78 (10:10) 3.2 0.8 0.8 0.8 0.8
23-03-2020 13.3 (15:20) 9.1 (00:00) 11.2 7.22 (21:50) 2.22 (21:50) 15.8 5 7.8 2.8 0.2
22-03-2020 12.7 (15:20) 8 (07:00) 10.3 3.89 (17:40) 1.94 (17:30) 7.2 4.6 0.8 0 1.8
21-03-2020 12.7 (13:40) 4.8 (00:00) 8.8 4.17 (14:00) 2.78 (05:00) 0 0 0 0 0
20-03-2020 13.1 (11:10) 7.2 (00:00) 10.2 5.56 (15:10) 2.78 (12:30) 0 0 0 0 0
19-03-2020 15.5 (13:10) 4.6 (00:00) 10 5.83 (13:50) 3.06 (16:20) 0 0 0 0 0
18-03-2020 16 (13:40) 6.9 (00:00) 11.5 6.11 (14:00) 2.78 (14:00) 0 0 0 0 0
17-03-2020 12.7 (14:20) 8 (00:00) 10.3 6.11 (14:20) 2.78 (14:00) 30.2 12.4 12.6 5.2 0
16-03-2020 11.2 (00:00) 8.1 (00:00) 9.7 8.61 (09:40) 3.61 (09:40) 27.8 3.2 12.2 11.4 1
15-03-2020 17.8 (14:20) 5 (00:00) 11.4 7.78 (14:50) 3.61 (15:20) 0 0 0 0 0
14-03-2020 18.6 (13:10) 6.4 (00:00) 12.5 7.5 (14:30) 3.33 (14:50) 0 0 0 0 0
13-03-2020 17.1 (13:30) 6.1 (06:30) 11.6 7.22 (13:00) 3.33 (14:10) 0 0 0 0 0
12-03-2020 24 (13:30) 8.6 (00:00) 16.3 5 (16:50) 3.33 (16:40) 0 0 0 0 0
11-03-2020 25 (11:30) 8.7 (00:00) 16.8 6.39 (08:30) 3.33 (14:10) 0 0 0 0 0
10-03-2020 19.4 (14:30) 8.7 (00:00) 14 9.17 (01:20) 5 (00:30) 0 0 0 0 0
09-03-2020 19.2 (15:50) 8 (00:00) 13.6 14.44 (07:10) 8.06 (07:20) 0 0 0 0 0
08-03-2020 20 (14:10) 4.1 (00:00) 12 6.39 (08:00) 3.61 (14:40) 0 0 0 0 0
07-03-2020 17.5 (16:40) 6.8 (00:00) 12.2 16.67 (14:40) 6.67 (15:40) 0 0 0 0 0
06-03-2020 15.6 (13:20) 6.2 (00:00) 10.9 19.72 (15:10) 11.11 (15:10) 0 0 0 0 0
05-03-2020 21.2 (13:50) 10.2 (00:00) 15.7 16.94 (11:00) 8.33 (12:00) 0 0 0 0 0
04-03-2020 24 (14:30) 8.7 (00:00) 16.3 9.17 (00:10) 4.44 (00:10) 0 0 0 0 0
03-03-2020 17.2 (16:20) 5.9 (00:00) 11.6 19.44 (15:00) 9.72 (15:00) 0 0 0 0 0
02-03-2020 18.2 (12:40) 8.6 (00:00) 13.4 22.5 (07:30) 9.72 (16:00) 1.4 0 0.8 0.6 0

Gráficas

Temp. máximas Temp. mínimas Temp. medias Precipitaciones Rachas de viento máximas Velocidades máximas media en intervalos de 10 minutos

Datos horarios

Fecha y hora oficial Temperatura (ºC) Velocidad del viento (km/h) Dirección del viento Racha (km/h) Dirección de racha Precipitación (mm) Presión (hPa) Tendencia (hPa) Humedad (%)
2020-03-31 23:00:00 9.3 2 Sudoeste 8 Noroeste 0 -- -- 94
2020-03-31 22:00:00 9.4 4 Sudoeste 9 Sudoeste 0.2 -- -- 94
2020-03-31 21:00:00 9.8 3 Nordeste 18 Norte 0 -- -- 88
2020-03-31 20:00:00 10 5 Norte 14 Este 0 -- -- 88
2020-03-31 19:00:00 10.8 6 Noroeste 21 Sudeste 0.2 -- -- 83
2020-03-31 18:00:00 11.6 5 Este 17 Este 0.2 -- -- 78
2020-03-31 17:00:00 12.4 5 Nordeste 16 Nordeste 0.2 -- -- 79
2020-03-31 16:00:00 12.6 6 Norte 18 Noroeste 0.2 -- -- 82
2020-03-31 15:00:00 10.9 8 Norte 13 Noroeste 0.4 -- -- 93
2020-03-31 14:00:00 9.6 4 Noroeste 13 Noroeste 1.4 -- -- 95
2020-03-31 13:00:00 8.7 5 Noroeste 15 Noroeste 1.8 -- -- 96
2020-03-31 12:00:00 8 5 Noroeste 10 Oeste 3.2 -- -- 97
2020-03-31 11:00:00 7.3 4 Oeste 6 Oeste 4.4 -- -- 97
2020-03-31 10:00:00 6.8 0 Calma 8 Oeste 4.2 -- -- 97
2020-03-31 09:00:00 6.2 4 Oeste 8 Noroeste 3.6 -- -- 97
2020-03-31 08:00:00 5.8 2 Oeste 11 Noroeste 3.2 -- -- 96
2020-03-31 07:00:00 5.5 5 Noroeste 12 Oeste 1.4 -- -- 96
2020-03-31 06:00:00 5.1 2 Oeste 8 Noroeste 0 -- -- 95
2020-03-31 05:00:00 4.9 3 Noroeste 9 Noroeste 0.8 -- -- 95
2020-03-31 04:00:00 4.9 4 Noroeste 8 Noroeste 1.4 -- -- 94
2020-03-31 03:00:00 5.1 3 Noroeste 14 Norte 2.8 -- -- 95
2020-03-31 02:00:00 5.1 5 Noroeste 9 Noroeste 2.8 -- -- 94
2020-03-31 01:00:00 5.1 0 Calma 5 Noroeste 1.4 -- -- 94
2020-03-31 00:00:00 5.2 0 Calma 7 Noroeste 0.8 -- -- 93
2020-03-30 23:00:00 5.5 3 Noroeste 10 Noroeste 0.8 -- -- 92
2020-03-30 22:00:00 5.8 2 Noroeste 6 Noroeste 1.4 -- -- 93
2020-03-30 21:00:00 6.1 2 Noroeste 9 Oeste 2 -- -- 92
2020-03-30 20:00:00 6.7 2 Oeste 11 Noroeste 0.6 -- -- 91
2020-03-30 19:00:00 7.4 4 Noroeste 10 Noroeste 0 -- -- 87
2020-03-30 18:00:00 7.3 4 Oeste 16 Noroeste 0.2 -- -- 88
2020-03-30 17:00:00 7.9 6 Noroeste 14 Norte 0 -- -- 81
2020-03-30 16:00:00 8.4 4 Norte 11 Noroeste 0 -- -- 82
2020-03-30 15:00:00 8.6 5 Noroeste 10 Noroeste 0.4 -- -- 85
2020-03-30 14:00:00 8.5 2 Oeste 14 Noroeste 1.2 -- -- 88
2020-03-30 13:00:00 9.3 4 Nordeste 10 Nordeste 1.4 -- -- 87
2020-03-30 12:00:00 9.9 3 Sur 10 Sur 0 -- -- 82
2020-03-30 11:00:00 10.5 3 Sudeste 9 Este 0.2 -- -- 80
2020-03-30 10:00:00 10.5 2 Este 4 Norte 0 -- -- 82
2020-03-30 09:00:00 8.5 3 Sudoeste 7 Sudoeste 0 -- -- 88
2020-03-30 08:00:00 7.9 3 Sudoeste 8 Oeste 0 -- -- 85
2020-03-30 07:00:00 8.2 4 Noroeste 13 Oeste 0 -- -- 81
2020-03-30 06:00:00 7.3 4 Sudoeste 9 Sudoeste 0 -- -- 83
2020-03-30 05:00:00 7.5 8 Sudoeste 10 Sudoeste 0 -- -- 78
2020-03-30 04:00:00 9.9 0 Calma 10 Noroeste 0 -- -- 64
2020-03-30 03:00:00 11.3 5 Noroeste 17 Noroeste 0 -- -- 55
2020-03-30 02:00:00 10.9 6 Oeste 14 Oeste 0 -- -- 59
2020-03-30 01:00:00 9.7 3 Oeste 12 Sudoeste 0 -- -- 79
2020-03-30 00:00:00 9.9 8 Sudoeste 12 Sudoeste 0 -- -- 77
2020-03-29 23:00:00 10.4 9 Sudoeste 13 Sudoeste 0 -- -- 75
2020-03-29 22:00:00 11.5 9 Sudoeste 11 Sudoeste 0 -- -- 73
2020-03-29 21:00:00 12.6 6 Sudoeste 9 Sudoeste 0 -- -- 70
2020-03-29 20:00:00 15.1 3 Sur 12 Sudeste 0 -- -- 61
2020-03-29 19:00:00 16.9 6 Sudeste 22 Este 0 -- -- 50
2020-03-29 18:00:00 20.5 4 Noroeste 22 Oeste 0 -- -- 36
2020-03-29 17:00:00 20.3 7 Oeste 24 Sudoeste 0 -- -- 36
2020-03-29 16:00:00 20.5 9 Sudoeste 23 Sudoeste 0 -- -- 35
2020-03-29 15:00:00 21.1 7 Oeste 29 Oeste 0 -- -- 33
2020-03-29 14:00:00 20.4 6 Noroeste 18 Oeste 0 -- -- 32
2020-03-29 13:00:00 19.5 6 Noroeste 16 Sudoeste 0 -- -- 35
2020-03-29 12:00:00 18.9 6 Noroeste 19 Oeste 0 -- -- 34
2020-03-29 11:00:00 16.5 3 Nordeste 8 Nordeste 0 -- -- 49
2020-03-29 10:00:00 11.3 0 Calma 8 Sudoeste 0 -- -- 71
2020-03-29 09:00:00 6.5 4 Sudoeste 13 Sudoeste 0 -- -- 86
2020-03-29 08:00:00 3.3 7 Sudoeste 13 Sudoeste 0 -- -- 92
2020-03-29 07:00:00 3.4 6 Sudoeste 13 Sudoeste 0 -- -- 92
2020-03-29 06:00:00 3.9 9 Sudoeste 13 Sudoeste 0 -- -- 91
2020-03-29 05:00:00 3.7 10 Sudoeste 15 Sudoeste 0 -- -- 93
2020-03-29 03:00:00 4.1 7 Sudoeste 13 Sudoeste 0 -- -- 93
2020-03-29 01:00:00 4.3 3 Sudoeste 12 Sudoeste 0 -- -- 95
2020-03-29 00:00:00 4 2 Sudoeste 11 Sudoeste 0 -- -- 96
2020-03-28 23:00:00 3.7 3 Sudoeste 8 Sudoeste 0 -- -- 93
2020-03-28 22:00:00 4.7 4 Sudoeste 12 Sudoeste 0 -- -- 91
2020-03-28 21:00:00 5.5 9 Sudoeste 13 Sudoeste 0 -- -- 89
2020-03-28 20:00:00 7 5 Sudoeste 9 Sudoeste 0 -- -- 84
2020-03-28 19:00:00 10 4 Sur 10 Sudoeste 0 -- -- 75
2020-03-28 18:00:00 12.3 4 Sur 16 Sudeste 0 -- -- 62
2020-03-28 17:00:00 14.1 7 Sudeste 14 Este 0 -- -- 54
2020-03-28 16:00:00 13.4 4 Sudeste 14 Sudeste 0 -- -- 54
2020-03-28 15:00:00 13.9 6 Este 15 Este 0 -- -- 52
2020-03-28 14:00:00 14.1 3 Este 20 Sudeste 0 -- -- 50
2020-03-28 13:00:00 14.2 7 Sudeste 19 Este 0 -- -- 50
2020-03-28 12:00:00 13.6 5 Nordeste 21 Norte 0 -- -- 52
2020-03-28 11:00:00 11.7 6 Norte 14 Norte 0 -- -- 58
2020-03-28 10:00:00 9.9 6 Norte 13 Noroeste 0 -- -- 65
2020-03-28 09:00:00 7.2 0 Calma 4 Sudoeste 0 -- -- 77
2020-03-28 08:00:00 4.4 0 Calma 8 Sudoeste 0 -- -- 93
2020-03-28 07:00:00 3.5 3 Sudoeste 12 Sudoeste 0 -- -- 91
2020-03-28 06:00:00 3 7 Sudoeste 11 Sudoeste 0 -- -- 92
2020-03-28 05:00:00 2.4 9 Sudoeste 13 Sudoeste 0 -- -- 94
2020-03-28 04:00:00 1.2 9 Sudoeste 14 Sudoeste 0 -- -- 94
2020-03-28 03:00:00 1 8 Sudoeste 13 Sudoeste 0 -- -- 94
2020-03-28 02:00:00 1.4 8 Sudoeste 13 Sudoeste 0 -- -- 94
2020-03-28 01:00:00 1.9 6 Sudoeste 12 Sudoeste 0 -- -- 95
2020-03-28 00:00:00 2.9 5 Sudoeste 12 Sudoeste 0 -- -- 93
2020-03-27 23:00:00 3.8 5 Sudoeste 11 Sudoeste 0 -- -- 94
2020-03-27 22:00:00 3.3 7 Sudoeste 12 Sudoeste 0 -- -- 93
2020-03-27 21:00:00 4.7 8 Sudoeste 11 Sudoeste 0 -- -- 90
2020-03-27 20:00:00 6.4 5 Sudoeste 8 Sudoeste 0 -- -- 87
2020-03-27 19:00:00 8.2 0 Calma 7 Sur 0 -- -- 80
2020-03-27 18:00:00 8.8 5 Sur 13 Sur 0 -- -- 73
2020-03-27 17:00:00 9.3 6 Sudeste 18 Este 0 -- -- 75
2020-03-27 16:00:00 9.4 6 Sudeste 15 Sudeste 0 -- -- 76
2020-03-27 15:00:00 8.6 4 Sudeste 15 Sudeste 0.2 -- -- 80
2020-03-27 14:00:00 8.7 5 Sudeste 8 Sudeste 0 -- -- 80
2020-03-27 13:00:00 7.2 4 Sudoeste 12 Sudeste 1 -- -- 92
2020-03-27 12:00:00 6.6 5 Sudoeste 16 Este 0.2 -- -- 90
2020-03-27 11:00:00 7.5 4 Este 10 Sudeste 0 -- -- 79
2020-03-27 10:00:00 6.1 2 Sudoeste 5 Sudoeste 0 -- -- 93
2020-03-27 09:00:00 5.5 2 Oeste 6 Noroeste 0.2 -- -- 93
2020-03-27 08:00:00 4.8 2 Oeste 8 Norte 0 -- -- 91
2020-03-27 07:00:00 4.3 0 Calma 9 Oeste 0 -- -- 92
2020-03-27 06:00:00 3.5 2 Noroeste 9 Noroeste 0 -- -- 97
2020-03-27 05:00:00 2.3 2 Oeste 7 Sudoeste 0 -- -- 95
2020-03-27 04:00:00 3.8 0 Calma 5 Oeste 0 -- -- 96
2020-03-27 03:00:00 3.2 4 Sudoeste 11 Sudoeste 0 -- -- 97
2020-03-27 02:00:00 2.3 5 Sudoeste 13 Sudoeste 0 -- -- 97
2020-03-27 01:00:00 1.7 6 Sudoeste 11 Sudoeste 0 -- -- 96
2020-03-27 00:00:00 1.7 8 Sudoeste 12 Sudoeste 0 -- -- 95
2020-03-26 23:00:00 2.4 9 Sudoeste 13 Sudoeste 0 -- -- 94
2020-03-26 22:00:00 3.6 5 Sudoeste 11 Sudoeste 0 -- -- 92
2020-03-26 21:00:00 4.2 3 Sudoeste 9 Sudoeste 0 -- -- 90
2020-03-26 20:00:00 6.2 4 Sudoeste 13 Sur 0 -- -- 83
2020-03-26 19:00:00 8.3 4 Sur 13 Sudeste 0 -- -- 80
2020-03-26 18:00:00 9.4 5 Sudoeste 22 Este 0 -- -- 75
2020-03-26 17:00:00 11.1 13 Sudeste 33 Nordeste 0 -- -- 64
2020-03-26 16:00:00 11.1 16 Norte 36 Noroeste 0 -- -- 47
2020-03-26 15:00:00 11.8 19 Norte 49 Noroeste 0 -- -- 45
2020-03-26 14:00:00 11.6 8 Norte 41 Norte 0 -- -- 52
2020-03-26 13:00:00 13.1 22 Norte 45 Norte 0.2 -- -- 49
2020-03-26 12:00:00 13 14 Norte 37 Norte 0 -- -- 48
2020-03-26 11:00:00 13.2 15 Norte 31 Noroeste 0 -- -- 54
2020-03-26 10:00:00 11.3 23 Norte 40 Noroeste 0 -- -- 55
2020-03-26 09:00:00 9.7 12 Norte 29 Nordeste 0 -- -- 62
2020-03-26 08:00:00 6.1 7 Noroeste 17 Noroeste 0 -- -- 92
2020-03-26 07:00:00 2.4 2 Oeste 13 Sudoeste 0 -- -- 97
2020-03-26 06:00:00 2.4 4 Sudoeste 13 Sudoeste 0 -- -- 97
2020-03-26 05:00:00 2.9 10 Sudoeste 14 Sudoeste 0 -- -- 98
2020-03-26 04:00:00 2.6 3 Sudoeste 12 Sudoeste 0 -- -- 98
2020-03-26 03:00:00 2.5 3 Oeste 7 Sudoeste 0 -- -- 97
2020-03-26 02:00:00 3.2 2 Oeste 6 Oeste 0 -- -- 96
2020-03-26 01:00:00 3.6 3 Sudoeste 8 Sudoeste 0 -- -- 95
2020-03-26 00:00:00 5.2 0 Calma 5 Oeste 0 -- -- 94
2020-03-25 23:00:00 5.4 2 Norte 7 Este 0 -- -- 95
2020-03-25 22:00:00 5.5 0 Calma 5 Oeste 0 -- -- 91
2020-03-25 21:00:00 6.3 0 Calma 3 Noroeste 0 -- -- 92
2020-03-25 20:00:00 6.6 0 Calma 4 Oeste 0 -- -- 89
2020-03-25 19:00:00 6.9 3 Sur 5 Sudeste 0 -- -- 88
2020-03-25 18:00:00 7.3 2 Sudeste 4 Sur 0 -- -- 83
2020-03-25 17:00:00 7.3 0 Calma 5 Sur 0 -- -- 84
2020-03-25 16:00:00 6.6 0 Calma 8 Sudeste 0 -- -- 90
2020-03-25 15:00:00 6 3 Sudeste 12 Sudeste 0.8 -- -- 91
2020-03-25 14:00:00 6.4 3 Sudeste 10 Sudeste 0.4 -- -- 90
2020-03-25 13:00:00 6.3 3 Sur 12 Este 0 -- -- 92
2020-03-25 12:00:00 6.9 5 Sudeste 14 Sudeste 0 -- -- 90
2020-03-25 11:00:00 7.4 0 Calma 4 Norte 0.4 -- -- 91
2020-03-25 10:00:00 7.3 0 Calma 5 Noroeste 0.2 -- -- 93
2020-03-25 09:00:00 6.7 0 Calma 4 Noroeste 0 -- -- 94
2020-03-25 08:00:00 6.2 2 Oeste 5 Oeste 0.2 -- -- 97
2020-03-25 07:00:00 6 3 Oeste 7 Noroeste 0 -- -- 96
2020-03-25 06:00:00 6.2 5 Noroeste 12 Noroeste 0 -- -- 94
2020-03-25 05:00:00 6.5 3 Oeste 8 Este 0.4 -- -- 95
2020-03-25 04:00:00 6.7 6 Noroeste 15 Norte 0.4 -- -- 94
2020-03-25 03:00:00 6.7 3 Noroeste 9 Norte 0 -- -- 95
2020-03-25 02:00:00 6.7 3 Sudoeste 6 Sudoeste 0.4 -- -- 96
2020-03-25 01:00:00 6.9 2 Sudoeste 7 Oeste 0 -- -- 95
2020-03-25 00:00:00 7.3 0 Calma 8 Sur 0.2 -- -- 94
2020-03-24 23:00:00 8 4 Sudeste 12 Sudeste 0.6 -- -- 90
2020-03-24 22:00:00 8.2 2 Sudeste 10 Sudeste 0 -- -- 87
2020-03-24 21:00:00 8.4 2 Sudeste 12 Este 0 -- -- 87
2020-03-24 20:00:00 8.6 7 Sudeste 17 Sudeste 0 -- -- 87
2020-03-24 19:00:00 8.7 4 Este 17 Sudeste 0 -- -- 91
2020-03-24 18:00:00 8.9 3 Este 9 Este 0.4 -- -- 92
2020-03-24 17:00:00 9 4 Norte 12 Nordeste 0.4 -- -- 94
2020-03-24 16:00:00 9.2 8 Nordeste 18 Nordeste 0 -- -- 89
2020-03-24 15:00:00 10.1 6 Este 21 Sudeste 0 -- -- 80
2020-03-24 14:00:00 10.4 6 Sudeste 15 Nordeste 0 -- -- 80
2020-03-24 13:00:00 10 5 Este 25 Sudeste 0 -- -- 81
2020-03-24 12:00:00 9.9 8 Este 22 Nordeste 0 -- -- 84
2020-03-24 11:00:00 9.8 9 Este 24 Sur 0.2 -- -- 86
2020-03-24 10:00:00 9.7 9 Este 27 Sudeste 0.6 -- -- 90
2020-03-24 09:00:00 10.3 7 Este 26 Sudeste 0 -- -- 85
2020-03-24 08:00:00 10.2 6 Este 24 Sudeste 0 -- -- 84
2020-03-24 07:00:00 10 8 Nordeste 33 Sudeste 0 -- -- 86
2020-03-24 06:00:00 10.1 7 Este 27 Sudeste 0.2 -- -- 87
2020-03-24 05:00:00 10.5 6 Nordeste 23 Sudeste 0.4 -- -- 90
2020-03-24 04:00:00 10.7 5 Este 17 Este 0 -- -- 87
2020-03-24 03:00:00 10.8 8 Este 25 Sudeste 0 -- -- 85
2020-03-24 02:00:00 10.7 6 Este 20 Este 0 -- -- 87
2020-03-24 01:00:00 10.8 5 Este 17 Nordeste 0.2 -- -- 91
2020-03-24 00:00:00 11 5 Este 15 Sudeste 0 -- -- 91
2020-03-23 23:00:00 10.9 4 Sudeste 16 Sudeste 0.2 -- -- 92
2020-03-23 22:00:00 11 6 Sudeste 26 Este 0 -- -- 93
2020-03-23 21:00:00 10.6 0 Calma 5 Este 0 -- -- 92
2020-03-23 20:00:00 10.7 4 Sudeste 13 Sur 0 -- -- 90
2020-03-23 19:00:00 11.2 3 Este 10 Sudeste 0 -- -- 90
2020-03-23 18:00:00 11.6 5 Este 12 Nordeste 0 -- -- 87
2020-03-23 17:00:00 11.5 2 Sudeste 15 Sudeste 1 -- -- 90
2020-03-23 16:00:00 12.4 6 Sudeste 17 Sudeste 1.2 -- -- 86
2020-03-23 15:00:00 13.1 3 Norte 8 Nordeste 0 -- -- 80
2020-03-23 14:00:00 11.8 0 Calma 12 Sudeste 0.6 -- -- 89
2020-03-23 13:00:00 12 3 Nordeste 7 Nordeste 0 -- -- 87
2020-03-23 12:00:00 11.5 5 Nordeste 10 Noroeste 0.4 -- -- 92
2020-03-23 11:00:00 10.8 3 Norte 6 Noroeste 3 -- -- 93
2020-03-23 10:00:00 9.7 0 Calma 5 Sudoeste 3.2 -- -- 96
2020-03-23 09:00:00 9.6 0 Calma 4 Sudoeste 0.6 -- -- 97
2020-03-23 08:00:00 9.3 3 Sur 5 Sudeste 0 -- -- 97
2020-03-23 07:00:00 9.2 2 Oeste 6 Sudoeste 0.6 -- -- 97
2020-03-23 06:00:00 9.2 3 Sudoeste 5 Sudoeste 0.2 -- -- 97
2020-03-23 05:00:00 9.2 0 Calma 5 Sur 0.6 -- -- 96
2020-03-23 04:00:00 9.2 4 Sudoeste 5 Sudoeste 1.4 -- -- 96
2020-03-23 03:00:00 9.3 3 Sudoeste 6 Sudoeste 0.4 -- -- 95
2020-03-23 02:00:00 9.4 0 Calma 4 Sudoeste 1.8 -- -- 95
2020-03-23 01:00:00 9.5 2 Sudoeste 5 Sudoeste 0.6 -- -- 95
2020-03-23 00:00:00 9.7 0 Calma 5 Sudoeste 0.8 -- -- 94
2020-03-22 23:00:00 9.9 0 Calma 5 Este 1 -- -- 93
2020-03-22 22:00:00 10.2 0 Calma 12 Sur 0 -- -- 88
2020-03-22 21:00:00 10.3 3 Sur 12 Sudeste 0 -- -- 91
2020-03-22 20:00:00 10.4 3 Sur 10 Sudoeste 0 -- -- 87
2020-03-22 19:00:00 11.2 0 Calma 12 Sur 0 -- -- 86
2020-03-22 18:00:00 11.8 4 Sudeste 14 Este 0 -- -- 81
2020-03-22 17:00:00 11.8 3 Sudeste 10 Sur 0 -- -- 82
2020-03-22 16:00:00 12.3 5 Sudeste 10 Sudeste 0 -- -- 75
2020-03-22 15:00:00 12.6 3 Noroeste 8 Norte 0 -- -- 77
2020-03-22 14:00:00 12.1 2 Norte 8 Sudeste 0 -- -- 76
2020-03-22 13:00:00 12.2 0 Calma 10 Nordeste 0 -- -- 75
2020-03-22 12:00:00 11.4 2 Nordeste 5 Nordeste 0 -- -- 80
2020-03-22 11:00:00 10.3 4 Nordeste 6 Nordeste 0 -- -- 88
2020-03-22 10:00:00 9.7 0 Calma 5 Norte 0 -- -- 92
2020-03-22 09:00:00 9 0 Calma 4 Sudoeste 0 -- -- 97
2020-03-22 08:00:00 8.1 3 Sudoeste 6 Sudoeste 0.2 -- -- 97
2020-03-22 07:00:00 8 2 Sudoeste 6 Sudoeste 0.6 -- -- 96
2020-03-22 06:00:00 8.1 5 Sudoeste 8 Sudoeste 0.4 -- -- 96
2020-03-22 05:00:00 8.2 5 Sudoeste 7 Sudoeste 0 -- -- 96
2020-03-22 04:00:00 8.5 2 Sudoeste 3 Sudoeste 0.2 -- -- 95
2020-03-22 03:00:00 8.7 2 Norte 7 Norte 1.2 -- -- 93
2020-03-22 02:00:00 9.2 0 Calma 5 Nordeste 2.4 -- -- 94
2020-03-22 01:00:00 9.5 3 Sudoeste 5 Sudoeste 0.4 -- -- 94
2020-03-22 00:00:00 9.6 2 Sudoeste 4 Sudoeste 0 -- -- 93
2020-03-21 23:00:00 9.8 0 Calma 3 Sudoeste 0 -- -- 91
2020-03-21 22:00:00 10.1 0 Calma 4 Sudeste 0 -- -- 89
2020-03-21 21:00:00 10.2 0 Calma 4 Sur 0 -- -- 88
2020-03-21 20:00:00 10.3 0 Calma 6 Este 0 -- -- 87
2020-03-21 19:00:00 10.5 2 Sudeste 6 Sudoeste 0 -- -- 84
2020-03-21 18:00:00 10.8 3 Sudeste 12 Sudeste 0 -- -- 84
2020-03-21 17:00:00 11.3 5 Sudeste 13 Este 0 -- -- 80
2020-03-21 16:00:00 11.6 3 Sudoeste 13 Sudeste 0 -- -- 80
2020-03-21 15:00:00 11.8 7 Sudeste 15 Este 0 -- -- 77
2020-03-21 14:00:00 12.4 7 Sudeste 15 Este 0 -- -- 72
2020-03-21 13:00:00 12.5 4 Nordeste 8 Este 0 -- -- 69
2020-03-21 12:00:00 11.6 3 Este 6 Nordeste 0 -- -- 74
2020-03-21 11:00:00 10.5 2 Este 4 Sudeste 0 -- -- 75
2020-03-21 10:00:00 9.6 0 Calma 3 Nordeste 0 -- -- 79
2020-03-21 09:00:00 8.2 0 Calma 4 Sudoeste 0 -- -- 92
2020-03-21 08:00:00 6.8 0 Calma 10 Sudoeste 0 -- -- 97
2020-03-21 07:00:00 5.3 8 Sudoeste 12 Sudoeste 0 -- -- 97
2020-03-21 06:00:00 4.9 8 Sudoeste 13 Sudoeste 0 -- -- 96
2020-03-21 05:00:00 5.2 10 Sudoeste 14 Sudoeste 0 -- -- 96
2020-03-21 04:00:00 5.6 8 Sudoeste 11 Sudoeste 0 -- -- 96
2020-03-21 03:00:00 6.2 8 Sudoeste 10 Sudoeste 0 -- -- 93
2020-03-21 02:00:00 7.7 8 Sudoeste 10 Sudoeste 0 -- -- 91
2020-03-21 01:00:00 9.4 3 Sur 8 Sudoeste 0 -- -- 91
2020-03-21 00:00:00 9.3 0 Calma 4 Sudoeste 0 -- -- 90
2020-03-20 23:00:00 9.3 2 Sudoeste 8 Sudeste 0 -- -- 90
2020-03-20 22:00:00 9.9 3 Sur 10 Sudoeste 0 -- -- 86
2020-03-20 21:00:00 10.1 2 Sur 13 Sur 0 -- -- 86
2020-03-20 20:00:00 10.2 3 Sur 10 Sur 0 -- -- 84
2020-03-20 19:00:00 11 2 Sur 11 Sur 0 -- -- 80
2020-03-20 18:00:00 11.9 4 Sudeste 13 Este 0 -- -- 77
2020-03-20 17:00:00 12.3 6 Sudeste 19 Este 0 -- -- 75
2020-03-20 16:00:00 12.8 9 Sudeste 20 Sudeste 0 -- -- 71
2020-03-20 15:00:00 12.9 10 Sudeste 20 Sudeste 0 -- -- 71
2020-03-20 14:00:00 11.6 4 Sur 16 Sudeste 0 -- -- 80
2020-03-20 13:00:00 12.2 6 Sudeste 18 Sudeste 0 -- -- 73
2020-03-20 12:00:00 12.3 7 Sudeste 14 Este 0 -- -- 71
2020-03-20 11:00:00 13 5 Nordeste 12 Nordeste 0 -- -- 69
2020-03-20 10:00:00 11.9 4 Nordeste 13 Norte 0 -- -- 74
2020-03-20 09:00:00 10 5 Noroeste 8 Noroeste 0 -- -- 87
2020-03-20 08:00:00 8.4 2 Sudoeste 6 Sudoeste 0 -- -- 96
2020-03-20 07:00:00 8.1 4 Sudoeste 6 Sudoeste 0 -- -- 95
2020-03-20 06:00:00 8.4 4 Sudoeste 5 Sudoeste 0 -- -- 95
2020-03-20 05:00:00 8.5 4 Sudoeste 6 Sudoeste 0 -- -- 95
2020-03-20 04:00:00 8.6 2 Oeste 4 Sudoeste 0 -- -- 96
2020-03-20 03:00:00 8.6 2 Sudoeste 6 Sudoeste 0 -- -- 96
2020-03-20 02:00:00 8.3 0 Calma 8 Sudoeste 0 -- -- 97
2020-03-20 01:00:00 7.5 4 Sudoeste 10 Sudoeste 0 -- -- 96
2020-03-20 00:00:00 7.5 4 Sudoeste 7 Sudoeste 0 -- -- 93
2020-03-19 23:00:00 8.9 0 Calma 6 Sudoeste 0 -- -- 94
2020-03-19 22:00:00 9 3 Sur 9 Sudoeste 0 -- -- 95
2020-03-19 21:00:00 9.1 3 Sur 9 Sudoeste 0 -- -- 93
2020-03-19 20:00:00 10.1 3 Sur 8 Sur 0 -- -- 89
2020-03-19 19:00:00 11.2 3 Sur 15 Sudeste 0 -- -- 86
2020-03-19 18:00:00 12.2 5 Sudeste 19 Sudeste 0 -- -- 81
2020-03-19 17:00:00 13.3 6 Sudeste 21 Sudeste 0 -- -- 75
2020-03-19 16:00:00 13.7 9 Sudeste 19 Sudeste 0 -- -- 71
2020-03-19 15:00:00 13.9 10 Sudeste 18 Sudeste 0 -- -- 72
2020-03-19 14:00:00 14.6 10 Este 21 Sudeste 0 -- -- 68
2020-03-19 13:00:00 14.5 5 Este 17 Este 0 -- -- 67
2020-03-19 12:00:00 13.8 5 Este 11 Sudeste 0 -- -- 65
2020-03-19 11:00:00 12.6 4 Este 12 Este 0 -- -- 68
2020-03-19 10:00:00 11.1 3 Norte 5 Nordeste 0 -- -- 75
2020-03-19 09:00:00 8.5 0 Calma 12 Sudoeste 0 -- -- 93
2020-03-19 08:00:00 5.5 9 Sudoeste 12 Sudoeste 0 -- -- 97
2020-03-19 07:00:00 4.6 7 Sudoeste 11 Sudoeste 0 -- -- 96
2020-03-19 06:00:00 4.7 9 Sudoeste 12 Sudoeste 0 -- -- 96
2020-03-19 05:00:00 5.1 8 Sudoeste 12 Sudoeste 0 -- -- 95
2020-03-19 04:00:00 5.5 8 Sudoeste 13 Sudoeste 0 -- -- 95
2020-03-19 03:00:00 6 10 Sudoeste 13 Sudoeste 0 -- -- 95
2020-03-19 02:00:00 6.6 5 Sudoeste 10 Sudoeste 0 -- -- 95
2020-03-19 01:00:00 7.2 7 Sudoeste 11 Sudoeste 0 -- -- 95
2020-03-19 00:00:00 7.7 8 Sudoeste 10 Sudoeste 0 -- -- 94
2020-03-18 23:00:00 8.8 6 Sudoeste 8 Sudoeste 0 -- -- 93
2020-03-18 22:00:00 9.6 3 Sudoeste 8 Sudoeste 0 -- -- 95
2020-03-18 21:00:00 8.8 2 Sur 5 Sudoeste 0 -- -- 94
2020-03-18 20:00:00 9.9 0 Calma 8 Sur 0 -- -- 88
2020-03-18 19:00:00 11.5 2 Sudeste 11 Sur 0 -- -- 85
2020-03-18 18:00:00 12.9 3 Sudeste 12 Este 0 -- -- 76
2020-03-18 17:00:00 13.9 6 Sudeste 13 Sudeste 0 -- -- 74
2020-03-18 16:00:00 14.3 5 Sudeste 15 Sudeste 0 -- -- 79
2020-03-18 15:00:00 15.3 5 Sudeste 18 Este 0 -- -- 73
2020-03-18 14:00:00 15.5 10 Este 22 Este 0 -- -- 52
2020-03-18 13:00:00 15.8 6 Nordeste 17 Nordeste 0 -- -- 59
2020-03-18 12:00:00 14.2 4 Norte 11 Sudeste 0 -- -- 71
2020-03-18 11:00:00 13 4 Este 14 Este 0 -- -- 74
2020-03-18 10:00:00 11.1 0 Calma 4 Norte 0 -- -- 84
2020-03-18 09:00:00 9.2 0 Calma 6 Sudoeste 0 -- -- 99
2020-03-18 08:00:00 7.3 4 Sudoeste 9 Sudoeste 0 -- -- 99
2020-03-18 07:00:00 6.9 8 Sudoeste 11 Sudoeste 0 -- -- 98
2020-03-18 06:00:00 7 6 Sudoeste 12 Sudoeste 0 -- -- 98
2020-03-18 05:00:00 7.2 7 Sudoeste 9 Sudoeste 0 -- -- 98
2020-03-18 04:00:00 7.4 6 Sudoeste 9 Sudoeste 0 -- -- 98
2020-03-18 03:00:00 7.4 6 Sudoeste 9 Sudoeste 0 -- -- 98
2020-03-18 02:00:00 7.6 3 Oeste 8 Sudoeste 0 -- -- 97
2020-03-18 01:00:00 7.9 2 Sudoeste 6 Sudoeste 0 -- -- 97
2020-03-18 00:00:00 8 2 Sudoeste 5 Sudoeste 0 -- -- 96
2020-03-17 23:00:00 8.7 0 Calma 8 Nordeste 0 -- -- 94
2020-03-17 22:00:00 10.2 0 Calma 17 Nordeste 0 -- -- 89
2020-03-17 21:00:00 11.1 0 Calma 6 Nordeste 0 -- -- 94
2020-03-17 20:00:00 11.6 0 Calma 6 Este 0 -- -- 93
2020-03-17 19:00:00 12.1 2 Este 7 Sudeste 0 -- -- 92
2020-03-17 18:00:00 12.3 5 Nordeste 15 Nordeste 0.6 -- -- 92
2020-03-17 17:00:00 12.5 2 Este 16 Nordeste 0 -- -- 93
2020-03-17 16:00:00 12.4 7 Nordeste 21 Nordeste 0 -- -- 93
2020-03-17 15:00:00 12.6 3 Este 22 Sudeste 0 -- -- 95
2020-03-17 14:00:00 12.6 10 Este 21 Este 0.4 -- -- 96
2020-03-17 13:00:00 11.9 2 Norte 4 Nordeste 4.2 -- -- 97
2020-03-17 12:00:00 11.5 2 Nordeste 6 Nordeste 3.6 -- -- 97
2020-03-17 11:00:00 11.2 3 Nordeste 8 Este 4.8 -- -- 97
2020-03-17 10:00:00 10.7 2 Sudeste 10 Este 1 -- -- 97
2020-03-17 09:00:00 10.4 0 Calma 5 Sur 1 -- -- 97
2020-03-17 08:00:00 10.3 3 Sudoeste 6 Sudoeste 1 -- -- 97
2020-03-17 07:00:00 10.2 0 Calma 2 Norte 1.2 -- -- 96
2020-03-17 06:00:00 10.3 0 Calma 4 Norte 2.8 -- -- 96
2020-03-17 05:00:00 10.4 0 Calma 4 Norte 2.2 -- -- 96
2020-03-17 04:00:00 10.5 3 Norte 6 Sudeste 1.4 -- -- 96
2020-03-17 03:00:00 10.6 5 Sudeste 7 Sudeste 1.8 -- -- 95
2020-03-17 02:00:00 10.9 3 Sudeste 8 Sudeste 3.4 -- -- 95
2020-03-17 01:00:00 11.2 3 Sudeste 13 Sudeste 0.8 -- -- 95
2020-03-17 00:00:00 11.2 3 Sur 15 Oeste 0.4 -- -- 95
2020-03-16 23:00:00 11.2 4 Sur 13 Sur 0.6 -- -- 96
2020-03-16 22:00:00 10.6 3 Sur 8 Sur 0 -- -- 96
2020-03-16 21:00:00 9.9 0 Calma 6 Sudoeste 0 -- -- 96
2020-03-16 20:00:00 9.7 2 Sudoeste 7 Sudeste 0 -- -- 95
2020-03-16 19:00:00 9.7 0 Calma 6 Norte 0 -- -- 94
2020-03-16 18:00:00 9.6 2 Sur 8 Sudoeste 0 -- -- 93
2020-03-16 17:00:00 9.4 2 Noroeste 8 Sudoeste 0 -- -- 93
2020-03-16 16:00:00 8.4 3 Noroeste 27 Oeste 0.6 -- -- 92
2020-03-16 15:00:00 9.8 5 Sur 15 Sudeste 2.4 -- -- 90
2020-03-16 14:00:00 10.4 0 Calma 9 Sudoeste 3.6 -- -- 94
2020-03-16 13:00:00 10.7 2 Sur 11 Sudoeste 4.8 -- -- 95
2020-03-16 12:00:00 10.6 3 Sur 14 Sudoeste 7.2 -- -- 96
2020-03-16 11:00:00 10.2 5 Sur 13 Sudeste 1.8 -- -- 95
2020-03-16 10:00:00 10.2 6 Sudeste 31 Este 1 -- -- 94
2020-03-16 09:00:00 10.9 8 Sudeste 24 Sudeste 0.4 -- -- 95
2020-03-16 08:00:00 10.4 6 Sudeste 18 Este 0.2 -- -- 95
2020-03-16 07:00:00 10.4 5 Sudeste 16 Este 1.6 -- -- 94
2020-03-16 06:00:00 10.6 6 Sudeste 12 Sudeste 0.6 -- -- 94
2020-03-16 05:00:00 10.7 3 Sudeste 8 Sudeste 1.2 -- -- 94
2020-03-16 04:00:00 10.9 0 Calma 5 Norte 0.2 -- -- 94
2020-03-16 03:00:00 10.9 2 Sudeste 12 Este 0.6 -- -- 94
2020-03-16 02:00:00 11 0 Calma 6 Este 0.6 -- -- 91
2020-03-16 01:00:00 11.1 2 Sudeste 7 Sudeste 0 -- -- 86
2020-03-16 00:00:00 11.2 0 Calma 5 Este 0 -- -- 84
2020-03-15 23:00:00 11.3 0 Calma 6 Nordeste 0 -- -- 85
2020-03-15 22:00:00 11.3 2 Nordeste 4 Nordeste 0 -- -- 87
2020-03-15 21:00:00 10.6 0 Calma 5 Sur 0 -- -- 84
2020-03-15 20:00:00 10.8 0 Calma 5 Sur 0 -- -- 82
2020-03-15 19:00:00 12 3 Sur 15 Este 0 -- -- 79
2020-03-15 18:00:00 13.2 9 Sudeste 19 Sudeste 0 -- -- 77
2020-03-15 17:00:00 14.4 7 Sudeste 22 Sudeste 0 -- -- 73
2020-03-15 16:00:00 15.7 13 Sudeste 26 Este 0 -- -- 63
2020-03-15 15:00:00 16.9 12 Sudeste 28 Sudeste 0 -- -- 62
2020-03-15 14:00:00 17 9 Sudeste 24 Este 0 -- -- 64
2020-03-15 13:00:00 17 9 Sudeste 19 Sudeste 0 -- -- 62
2020-03-15 12:00:00 16 6 Este 14 Nordeste 0 -- -- 65
2020-03-15 11:00:00 14 4 Este 8 Este 0 -- -- 73
2020-03-15 10:00:00 10.7 2 Sur 6 Sur 0 -- -- 88
2020-03-15 09:00:00 8.3 0 Calma 8 Sudoeste 0 -- -- 97
2020-03-15 08:00:00 5.4 4 Sudoeste 9 Sudoeste 0 -- -- 96
2020-03-15 07:00:00 5.4 3 Sudoeste 8 Sudoeste 0 -- -- 95
2020-03-15 06:00:00 5.5 0 Calma 10 Sudoeste 0 -- -- 94
2020-03-15 05:00:00 5.9 7 Sudoeste 13 Sudoeste 0 -- -- 94
2020-03-15 04:00:00 6.1 10 Sudoeste 13 Sudoeste 0 -- -- 94
2020-03-15 03:00:00 6.2 5 Sudoeste 10 Sudoeste 0 -- -- 94
2020-03-15 02:00:00 6.5 8 Sudoeste 11 Sudoeste 0 -- -- 92
2020-03-15 01:00:00 7.4 6 Sudoeste 9 Sudoeste 0 -- -- 90
2020-03-15 00:00:00 7.7 6 Sudoeste 10 Sudoeste 0 -- -- 91
2020-03-14 23:00:00 8.3 3 Sudoeste 8 Sudoeste 0 -- -- 90
2020-03-14 22:00:00 8.8 4 Sudoeste 8 Sudoeste 0 -- -- 90
2020-03-14 21:00:00 9.5 4 Sudoeste 6 Sudoeste 0 -- -- 85
2020-03-14 20:00:00 11.8 0 Calma 11 Sudoeste 0 -- -- 83
2020-03-14 19:00:00 13.6 3 Noroeste 12 Sudeste 0 -- -- 74
2020-03-14 18:00:00 15.4 6 Sudeste 17 Sudeste 0 -- -- 69
2020-03-14 17:00:00 16.7 9 Sudeste 19 Sudeste 0 -- -- 62
2020-03-14 16:00:00 17.3 10 Sudeste 23 Este 0 -- -- 57
2020-03-14 15:00:00 17.4 11 Sudeste 27 Sudeste 0 -- -- 60
2020-03-14 14:00:00 17.9 11 Sudeste 23 Sudeste 0 -- -- 56
2020-03-14 13:00:00 18.4 7 Este 18 Sudeste 0 -- -- 52
2020-03-14 12:00:00 17 9 Sudeste 17 Sudeste 0 -- -- 56
2020-03-14 11:00:00 16.1 8 Sudeste 18 Sudeste 0 -- -- 57
2020-03-14 10:00:00 15.2 8 Sudeste 15 Sudeste 0 -- -- 62
2020-03-14 09:00:00 10.2 6 Sudoeste 9 Sudoeste 0 -- -- 87
2020-03-14 08:00:00 6.4 6 Sudoeste 9 Sudoeste 0 -- -- 95
2020-03-14 07:00:00 6.9 4 Sudoeste 12 Sudoeste 0 -- -- 94
2020-03-14 06:00:00 6.9 6 Sudoeste 13 Sudoeste 0 -- -- 96
2020-03-14 05:00:00 6.8 5 Sudoeste 11 Sudoeste 0 -- -- 95
2020-03-14 04:00:00 7 4 Oeste 11 Sudoeste 0 -- -- 95
2020-03-14 03:00:00 6.9 5 Sudoeste 12 Sudoeste 0 -- -- 95
2020-03-14 02:00:00 7.2 3 Sudoeste 13 Sudoeste 0 -- -- 92
2020-03-14 01:00:00 7.8 3 Sudoeste 10 Sudoeste 0 -- -- 91
2020-03-14 00:00:00 8.2 6 Sudoeste 11 Sudoeste 0 -- -- 90
2020-03-13 23:00:00 8.5 4 Sudoeste 9 Sudoeste 0 -- -- 89
2020-03-13 22:00:00 8.6 8 Sudoeste 10 Sudoeste 0 -- -- 88
2020-03-13 21:00:00 8.8 3 Sudoeste 11 Sudoeste 0 -- -- 85
2020-03-13 20:00:00 10.2 4 Oeste 8 Oeste 0 -- -- 79
2020-03-13 19:00:00 13.1 2 Sur 12 Sudeste 0 -- -- 72
2020-03-13 18:00:00 13.9 6 Sudeste 17 Sudeste 0 -- -- 68
2020-03-13 17:00:00 15.2 7 Sudeste 20 Este 0 -- -- 65
2020-03-13 16:00:00 15.5 7 Sudeste 24 Este 0 -- -- 64
2020-03-13 15:00:00 16.2 11 Sudeste 24 Este 0 -- -- 60
2020-03-13 14:00:00 16.9 12 Sudeste 23 Sur 0 -- -- 59
2020-03-13 13:00:00 16.3 11 Sudeste 26 Sudeste 0 -- -- 58
2020-03-13 12:00:00 16.3 6 Este 18 Este 0 -- -- 57
2020-03-13 11:00:00 15.8 5 Este 13 Sudeste 0 -- -- 58
2020-03-13 10:00:00 13.3 2 Este 8 Sudeste 0 -- -- 72
2020-03-13 09:00:00 10 0 Calma 9 Sudoeste 0 -- -- 92
2020-03-13 08:00:00 6.8 2 Oeste 7 Sudoeste 0 -- -- 96
2020-03-13 07:00:00 6.2 0 Calma 8 Sudoeste 0 -- -- 95
2020-03-13 06:00:00 6.4 2 Sur 8 Sudoeste 0 -- -- 93
2020-03-13 05:00:00 6.8 4 Sudoeste 9 Sudoeste 0 -- -- 92
2020-03-13 04:00:00 7.6 2 Sudoeste 8 Sudoeste 0 -- -- 90
2020-03-13 03:00:00 8.2 0 Calma 9 Sudoeste 0 -- -- 91
2020-03-13 02:00:00 8.6 5 Sudoeste 12 Sudoeste 0 -- -- 89
2020-03-13 01:00:00 9.5 3 Oeste 11 Sudoeste 0 -- -- 88
2020-03-13 00:00:00 10.4 9 Sudoeste 13 Sudoeste 0 -- -- 90
2020-03-12 23:00:00 11 5 Sudoeste 12 Sudoeste 0 -- -- 89
2020-03-12 22:00:00 11.1 9 Sudoeste 12 Sudoeste 0 -- -- 89
2020-03-12 21:00:00 11.9 6 Sudoeste 9 Sudoeste 0 -- -- 85
2020-03-12 20:00:00 13.4 4 Oeste 6 Sudoeste 0 -- -- 80
2020-03-12 19:00:00 16.6 0 Calma 5 Sudeste 0 -- -- 72
2020-03-12 18:00:00 18.4 3 Este 15 Sudeste 0 -- -- 67
2020-03-12 17:00:00 20.5 10 Sudeste 18 Sudeste 0 -- -- 59
2020-03-12 16:00:00 23 9 Sudeste 18 Sudeste 0 -- -- 51
2020-03-12 15:00:00 23.8 8 Sudeste 18 Este 0 -- -- 48
2020-03-12 14:00:00 23.8 9 Sudeste 15 Sudeste 0 -- -- 50
2020-03-12 13:00:00 23.7 8 Este 16 Este 0 -- -- 45
2020-03-12 12:00:00 23.1 5 Este 10 Este 0 -- -- 42
2020-03-12 11:00:00 21.7 2 Este 7 Este 0 -- -- 43
2020-03-12 10:00:00 18.3 0 Calma 3 Sur 0 -- -- 54
2020-03-12 09:00:00 14.2 0 Calma 12 Sudoeste 0 -- -- 73
2020-03-12 08:00:00 9.1 6 Sudoeste 13 Sudoeste 0 -- -- 84
2020-03-12 07:00:00 9.4 2 Sur 15 Sudoeste 0 -- -- 80
2020-03-12 06:00:00 9.9 6 Sudoeste 12 Sudoeste 0 -- -- 78
2020-03-12 05:00:00 9.6 6 Sudoeste 12 Sudoeste 0 -- -- 76
2020-03-12 04:00:00 9.4 4 Sudoeste 11 Sudoeste 0 -- -- 77
2020-03-12 03:00:00 10.5 6 Oeste 13 Sudoeste 0 -- -- 71
2020-03-12 02:00:00 10.6 3 Sudoeste 13 Sudoeste 0 -- -- 72
2020-03-12 01:00:00 10.5 6 Sudoeste 13 Sudoeste 0 -- -- 72
2020-03-12 00:00:00 10.1 2 Sudoeste 12 Sudoeste 0 -- -- 77
2020-03-11 23:00:00 10.6 4 Sudoeste 11 Sudoeste 0 -- -- 77
2020-03-11 22:00:00 11.6 6 Sudoeste 12 Sudoeste 0 -- -- 75
2020-03-11 21:00:00 11.8 9 Sudoeste 11 Sudoeste 0 -- -- 74
2020-03-11 20:00:00 13.5 8 Sudoeste 11 Sudoeste 0 -- -- 67
2020-03-11 19:00:00 16.3 4 Sur 13 Sudeste 0 -- -- 57
2020-03-11 18:00:00 18.9 10 Sudeste 18 Sudeste 0 -- -- 50
2020-03-11 17:00:00 20.8 8 Sudeste 20 Sudeste 0 -- -- 46
2020-03-11 16:00:00 22.6 9 Sudeste 22 Este 0 -- -- 40
2020-03-11 15:00:00 23.1 12 Sudeste 21 Sudeste 0 -- -- 38
2020-03-11 14:00:00 24 12 Sudeste 23 Sudeste 0 -- -- 35
2020-03-11 13:00:00 24.1 10 Sudeste 21 Sudeste 0 -- -- 35
2020-03-11 12:00:00 24.6 9 Este 19 Este 0 -- -- 31
2020-03-11 11:00:00 24.1 4 Nordeste 10 Sudeste 0 -- -- 33
2020-03-11 10:00:00 21.8 3 Sudeste 10 Sudeste 0 -- -- 44
2020-03-11 09:00:00 19.2 9 Sudeste 23 Noroeste 0 -- -- 45
2020-03-11 08:00:00 15 5 Noroeste 13 Noroeste 0 -- -- 57
2020-03-11 07:00:00 14.3 4 Noroeste 13 Norte 0 -- -- 55
2020-03-11 06:00:00 12.2 4 Noroeste 13 Oeste 0 -- -- 63
2020-03-11 05:00:00 13.2 4 Noroeste 9 Noroeste 0 -- -- 58
2020-03-11 04:00:00 13.7 3 Sudoeste 5 Oeste 0 -- -- 55
2020-03-11 03:00:00 13.6 3 Oeste 10 Oeste 0 -- -- 58
2020-03-11 02:00:00 10.1 0 Calma 11 Sudoeste 0 -- -- 73
2020-03-11 01:00:00 8.7 3 Oeste 11 Sudoeste 0 -- -- 82
2020-03-11 00:00:00 10.1 2 Oeste 15 Sudoeste 0 -- -- 77
2020-03-10 23:00:00 9.3 7 Sudoeste 13 Sudoeste 0 -- -- 84
2020-03-10 22:00:00 10.2 3 Oeste 10 Sudoeste 0 -- -- 81
2020-03-10 21:00:00 10.7 6 Sudoeste 12 Sudoeste 0 -- -- 81
2020-03-10 20:00:00 11.6 3 Sudoeste 6 Sudoeste 0 -- -- 78
2020-03-10 19:00:00 14.1 0 Calma 5 Sudeste 0 -- -- 72
2020-03-10 18:00:00 15.6 3 Sudeste 8 Sudeste 0 -- -- 66
2020-03-10 17:00:00 16.2 4 Este 8 Este 0 -- -- 62
2020-03-10 16:00:00 17.1 4 Norte 12 Sudeste 0 -- -- 58
2020-03-10 15:00:00 18.6 4 Este 12 Este 0 -- -- 49
2020-03-10 14:00:00 19.2 6 Norte 14 Sudeste 0 -- -- 48
2020-03-10 13:00:00 17.8 8 Sudeste 15 Sudeste 0 -- -- 43
2020-03-10 12:00:00 18.2 3 Este 10 Sudeste 0 -- -- 36
2020-03-10 11:00:00 16 7 Sudeste 17 Sudeste 0 -- -- 44
2020-03-10 10:00:00 15.6 6 Este 25 Norte 0 -- -- 40
2020-03-10 09:00:00 16.1 14 Norte 24 Norte 0 -- -- 35
2020-03-10 08:00:00 12.9 14 Norte 30 Noroeste 0 -- -- 40
2020-03-10 07:00:00 9.7 4 Noroeste 18 Noroeste 0 -- -- 46
2020-03-10 06:00:00 9 3 Noroeste 9 Sudoeste 0 -- -- 57
2020-03-10 05:00:00 9.8 3 Norte 14 Noroeste 0 -- -- 53
2020-03-10 04:00:00 10.9 9 Noroeste 22 Noroeste 0 -- -- 48
2020-03-10 03:00:00 11.2 9 Noroeste 25 Norte 0 -- -- 46
2020-03-10 02:00:00 11.8 11 Norte 33 Noroeste 0 -- -- 43
2020-03-10 01:00:00 11.7 12 Noroeste 30 Norte 0 -- -- 43
2020-03-10 00:00:00 11.5 14 Noroeste 29 Noroeste 0 -- -- 44
2020-03-09 23:00:00 12.2 16 Noroeste 35 Noroeste 0 -- -- 44
2020-03-09 22:00:00 13.5 15 Noroeste 35 Noroeste 0 -- -- 42
2020-03-09 21:00:00 14.2 18 Noroeste 41 Noroeste 0 -- -- 40
2020-03-09 20:00:00 14 8 Noroeste 17 Norte 0 -- -- 41
2020-03-09 19:00:00 15.3 5 Noroeste 35 Noroeste 0 -- -- 37
2020-03-09 18:00:00 16.9 16 Noroeste 34 Noroeste 0 -- -- 34
2020-03-09 17:00:00 18.3 17 Noroeste 37 Noroeste 0 -- -- 32
2020-03-09 16:00:00 19.1 19 Noroeste 42 Noroeste 0 -- -- 30
2020-03-09 15:00:00 18.7 26 Noroeste 46 Noroeste 0 -- -- 30
2020-03-09 14:00:00 18.5 17 Noroeste 40 Noroeste 0 -- -- 33
2020-03-09 13:00:00 18.1 21 Noroeste 40 Noroeste 0 -- -- 32
2020-03-09 12:00:00 15.9 23 Norte 43 Noroeste 0 -- -- 38
2020-03-09 11:00:00 15.2 14 Noroeste 31 Noroeste 0 -- -- 46
2020-03-09 10:00:00 13.7 17 Noroeste 32 Noroeste 0 -- -- 50
2020-03-09 09:00:00 11.9 18 Noroeste 32 Norte 0 -- -- 54
2020-03-09 08:00:00 12.1 9 Noroeste 52 Noroeste 0 -- -- 49
2020-03-09 07:00:00 12.6 22 Noroeste 45 Noroeste 0 -- -- 48
2020-03-09 06:00:00 12.6 16 Norte 38 Norte 0 -- -- 52
2020-03-09 05:00:00 11.2 5 Oeste 51 Norte 0 -- -- 56
2020-03-09 04:00:00 13.3 21 Norte 45 Norte 0 -- -- 50
2020-03-09 03:00:00 13.2 22 Norte 38 Norte 0 -- -- 49
2020-03-09 02:00:00 11.2 9 Noroeste 21 Norte 0 -- -- 51
2020-03-09 01:00:00 8.9 3 Oeste 12 Oeste 0 -- -- 56
2020-03-09 00:00:00 8 3 Sudoeste 9 Sudoeste 0 -- -- 66
2020-03-08 23:00:00 8.5 4 Sur 12 Sudoeste 0 -- -- 73
2020-03-08 22:00:00 9.3 5 Sudoeste 10 Sudoeste 0 -- -- 74
2020-03-08 21:00:00 10.2 6 Sudoeste 12 Sudoeste 0 -- -- 72
2020-03-08 20:00:00 10.3 3 Sudoeste 10 Sudoeste 0 -- -- 70
2020-03-08 19:00:00 12.4 3 Sudoeste 12 Sudeste 0 -- -- 64
2020-03-08 18:00:00 14.8 6 Sudeste 15 Sudeste 0 -- -- 53
2020-03-08 17:00:00 16.8 8 Sudeste 19 Sudeste 0 -- -- 43
2020-03-08 16:00:00 18.4 7 Sudeste 22 Este 0 -- -- 39
2020-03-08 15:00:00 19.2 10 Sudeste 23 Este 0 -- -- 36
2020-03-08 14:00:00 19.7 10 Este 22 Este 0 -- -- 34
2020-03-08 13:00:00 18.9 9 Sudeste 21 Este 0 -- -- 35
2020-03-08 12:00:00 18.6 7 Este 16 Este 0 -- -- 34
2020-03-08 11:00:00 17.3 5 Nordeste 12 Este 0 -- -- 35
2020-03-08 10:00:00 15.7 6 Norte 13 Norte 0 -- -- 38
2020-03-08 09:00:00 11.4 4 Norte 19 Oeste 0 -- -- 56
2020-03-08 08:00:00 8.7 10 Oeste 23 Oeste 0 -- -- 60
2020-03-08 07:00:00 4.2 5 Oeste 12 Sudoeste 0 -- -- 77
2020-03-08 06:00:00 4.2 5 Sudoeste 15 Sudoeste 0 -- -- 77
2020-03-08 05:00:00 5 6 Sudoeste 13 Sudoeste 0 -- -- 76
2020-03-08 04:00:00 7.2 3 Sudoeste 7 Sudoeste 0 -- -- 68
2020-03-08 03:00:00 9.7 3 Oeste 14 Noroeste 0 -- -- 60
2020-03-08 02:00:00 10.4 5 Noroeste 23 Noroeste 0 -- -- 58
2020-03-08 01:00:00 11.2 8 Noroeste 19 Noroeste 0 -- -- 55
2020-03-08 00:00:00 10.7 7 Oeste 18 Oeste 0 -- -- 57
2020-03-07 23:00:00 10.6 5 Noroeste 16 Oeste 0 -- -- 56
2020-03-07 22:00:00 9.9 6 Noroeste 14 Noroeste 0 -- -- 59
2020-03-07 21:00:00 7.6 3 Oeste 15 Sudoeste 0 -- -- 67
2020-03-07 20:00:00 7.8 6 Sudoeste 12 Sudoeste 0 -- -- 66
2020-03-07 19:00:00 11.6 3 Oeste 18 Sudeste 0 -- -- 55
2020-03-07 18:00:00 15 4 Sudeste 23 Nordeste 0 -- -- 43
2020-03-07 17:00:00 17.2 13 Norte 42 Noroeste 0 -- -- 35
2020-03-07 16:00:00 17.4 18 Norte 44 Noroeste 0 -- -- 36
2020-03-07 15:00:00 16.7 15 Norte 60 Nordeste 0 -- -- 37
2020-03-07 14:00:00 16.1 20 Norte 46 Noroeste 0 -- -- 38
2020-03-07 13:00:00 14.7 19 Norte 39 Noroeste 0 -- -- 42
2020-03-07 12:00:00 12.5 17 Noroeste 29 Noroeste 0 -- -- 47
2020-03-07 11:00:00 10.7 9 Noroeste 30 Oeste 0 -- -- 49
2020-03-07 10:00:00 9.2 14 Noroeste 38 Noroeste 0 -- -- 50
2020-03-07 09:00:00 8.7 19 Noroeste 33 Noroeste 0 -- -- 48
2020-03-07 08:00:00 7.9 12 Noroeste 41 Noroeste 0 -- -- 50
2020-03-07 07:00:00 7.4 17 Noroeste 33 Noroeste 0 -- -- 52
2020-03-07 06:00:00 7.5 8 Oeste 33 Noroeste 0 -- -- 53
2020-03-07 05:00:00 7.2 13 Noroeste 32 Oeste 0 -- -- 54
2020-03-07 04:00:00 7.1 13 Noroeste 33 Oeste 0 -- -- 51
2020-03-07 03:00:00 6.9 17 Noroeste 38 Oeste 0 -- -- 50
2020-03-07 02:00:00 7 11 Noroeste 33 Noroeste 0 -- -- 49
2020-03-07 01:00:00 6.9 7 Noroeste 35 Noroeste 0 -- -- 49
2020-03-07 00:00:00 8.5 22 Norte 51 Norte 0 -- -- 42
2020-03-06 23:00:00 8.9 18 Norte 41 Noroeste 0 -- -- 42
2020-03-06 22:00:00 9.6 19 Norte 39 Norte 0 -- -- 40
2020-03-06 21:00:00 9.1 13 Noroeste 42 Norte 0 -- -- 39
2020-03-06 20:00:00 10.1 22 Norte 43 Noroeste 0 -- -- 36
2020-03-06 19:00:00 9.5 17 Norte 34 Noroeste 0 -- -- 35
2020-03-06 18:00:00 10.2 19 Noroeste 55 Norte 0 -- -- 42
2020-03-06 17:00:00 11.7 30 Norte 54 Norte 0 -- -- 36
2020-03-06 16:00:00 11.5 29 Noroeste 71 Noroeste 0 -- -- 40
2020-03-06 15:00:00 12.6 35 Norte 62 Noroeste 0 -- -- 43
2020-03-06 14:00:00 14.6 28 Norte 55 Norte 0 -- -- 28
2020-03-06 13:00:00 14.6 32 Noroeste 60 Norte 0 -- -- 33
2020-03-06 12:00:00 14.5 28 Norte 61 Norte 0 -- -- 32
2020-03-06 11:00:00 12.9 16 Norte 37 Noroeste 0 -- -- 35
2020-03-06 10:00:00 12.2 11 Noroeste 40 Noroeste 0 -- -- 46
2020-03-06 09:00:00 12.1 11 Noroeste 31 Oeste 0 -- -- 49
2020-03-06 08:00:00 8.9 6 Oeste 27 Oeste 0 -- -- 51
2020-03-06 07:00:00 9.2 12 Oeste 29 Norte 0 -- -- 49
2020-03-06 06:00:00 8.6 8 Oeste 21 Oeste 0 -- -- 53
2020-03-06 05:00:00 6.2 5 Sudoeste 12 Sudoeste 0 -- -- 68
2020-03-06 04:00:00 6.8 3 Noroeste 14 Oeste 0 -- -- 65
2020-03-06 03:00:00 7 5 Oeste 12 Sudoeste 0 -- -- 64
2020-03-06 02:00:00 9.5 3 Oeste 22 Oeste 0 -- -- 59
2020-03-06 01:00:00 11.6 13 Noroeste 28 Oeste 0 -- -- 53
2020-03-06 00:00:00 11.3 9 Oeste 19 Noroeste 0 -- -- 49
2020-03-05 23:00:00 11.5 4 Oeste 23 Oeste 0 -- -- 49
2020-03-05 22:00:00 12.5 7 Oeste 22 Noroeste 0 -- -- 45
2020-03-05 21:00:00 12.6 6 Oeste 16 Oeste 0 -- -- 46
2020-03-05 20:00:00 13.6 8 Oeste 22 Oeste 0 -- -- 40
2020-03-05 19:00:00 14.5 5 Sudoeste 27 Noroeste 0 -- -- 42
2020-03-05 18:00:00 16.6 13 Noroeste 41 Noroeste 0 -- -- 34
2020-03-05 17:00:00 18 17 Noroeste 37 Oeste 0 -- -- 38
2020-03-05 16:00:00 19 14 Noroeste 47 Noroeste 0 -- -- 47
2020-03-05 15:00:00 19.3 17 Noroeste 45 Norte 0 -- -- 46
2020-03-05 14:00:00 20.8 28 Noroeste 54 Noroeste 0 -- -- 43
2020-03-05 13:00:00 19.6 20 Noroeste 59 Noroeste 0 -- -- 47
2020-03-05 12:00:00 18.4 30 Noroeste 54 Noroeste 0 -- -- 46
2020-03-05 11:00:00 17.4 27 Noroeste 61 Noroeste 0 -- -- 48
2020-03-05 10:00:00 17.2 12 Noroeste 25 Oeste 0 -- -- 54
2020-03-05 09:00:00 13.4 3 Noroeste 22 Noroeste 0 -- -- 64
2020-03-05 08:00:00 13.4 12 Noroeste 26 Oeste 0 -- -- 62
2020-03-05 07:00:00 11.2 6 Noroeste 14 Noroeste 0 -- -- 68
2020-03-05 06:00:00 11.1 7 Oeste 14 Sudoeste 0 -- -- 67
2020-03-05 05:00:00 11.4 8 Oeste 21 Sudoeste 0 -- -- 65
2020-03-05 04:00:00 10.3 5 Oeste 15 Norte 0 -- -- 67
2020-03-05 03:00:00 12.9 5 Oeste 18 Noroeste 0 -- -- 59
2020-03-05 02:00:00 12.4 3 Noroeste 12 Noroeste 0 -- -- 60
2020-03-05 01:00:00 14.3 4 Oeste 18 Noroeste 0 -- -- 54
2020-03-05 00:00:00 15 6 Noroeste 19 Noroeste 0 -- -- 52
2020-03-04 23:00:00 15 7 Oeste 24 Noroeste 0 -- -- 52
2020-03-04 22:00:00 12.7 3 Oeste 14 Oeste 0 -- -- 60
2020-03-04 21:00:00 15.8 5 Oeste 22 Noroeste 0 -- -- 51
2020-03-04 20:00:00 16.5 9 Oeste 18 Sudoeste 0 -- -- 50
2020-03-04 19:00:00 18 9 Oeste 17 Oeste 0 -- -- 47
2020-03-04 18:00:00 20 5 Noroeste 18 Noroeste 0 -- -- 42
2020-03-04 17:00:00 22.1 10 Noroeste 23 Noroeste 0 -- -- 37
2020-03-04 16:00:00 23 9 Norte 26 Norte 0 -- -- 36
2020-03-04 15:00:00 23.6 7 Sudoeste 21 Noroeste 0 -- -- 41
2020-03-04 14:00:00 23.3 6 Noroeste 21 Nordeste 0 -- -- 41
2020-03-04 13:00:00 22.7 10 Norte 29 Norte 0 -- -- 37
2020-03-04 12:00:00 20.8 6 Sudeste 15 Sur 0 -- -- 46
2020-03-04 11:00:00 19.1 4 Este 8 Este 0 -- -- 52
2020-03-04 10:00:00 16.4 5 Este 16 Norte 0 -- -- 61
2020-03-04 09:00:00 13.8 2 Sur 17 Noroeste 0 -- -- 72
2020-03-04 08:00:00 12.6 6 Oeste 15 Oeste 0 -- -- 67
2020-03-04 07:00:00 12.1 6 Oeste 19 Noroeste 0 -- -- 65
2020-03-04 06:00:00 9 4 Oeste 17 Sudoeste 0 -- -- 71
2020-03-04 05:00:00 8.7 11 Sudoeste 17 Sudoeste 0 -- -- 66
2020-03-04 04:00:00 9.2 12 Sudoeste 17 Sudoeste 0 -- -- 64
2020-03-04 03:00:00 10.6 6 Sudoeste 13 Sudoeste 0 -- -- 58
2020-03-04 02:00:00 14.3 10 Sur 24 Noroeste 0 -- -- 45
2020-03-04 01:00:00 15.3 10 Noroeste 33 Norte 0 -- -- 42
2020-03-04 00:00:00 15.5 14 Noroeste 39 Noroeste 0 -- -- 43
2020-03-03 23:00:00 16 15 Noroeste 45 Noroeste 0 -- -- 44
2020-03-03 22:00:00 16.4 21 Noroeste 54 Noroeste 0 -- -- 45
2020-03-03 21:00:00 16.7 24 Noroeste 66 Noroeste 0 -- -- 47
2020-03-03 20:00:00 16.6 26 Noroeste 58 Noroeste 0 -- -- 48
2020-03-03 19:00:00 16.4 26 Noroeste 69 Noroeste 0 -- -- 48
2020-03-03 18:00:00 16.1 24 Noroeste 58 Noroeste 0 -- -- 49
2020-03-03 17:00:00 16.5 31 Noroeste 66 Oeste 0 -- -- 48
2020-03-03 16:00:00 16.8 26 Noroeste 68 Oeste 0 -- -- 46
2020-03-03 15:00:00 15.7 35 Noroeste 70 Noroeste 0 -- -- 48
2020-03-03 14:00:00 15.9 21 Noroeste 51 Noroeste 0 -- -- 48
2020-03-03 13:00:00 16.4 14 Oeste 36 Oeste 0 -- -- 45
2020-03-03 12:00:00 14.8 15 Noroeste 31 Noroeste 0 -- -- 47
2020-03-03 11:00:00 13.4 14 Oeste 33 Noroeste 0 -- -- 47
2020-03-03 10:00:00 11.2 6 Sur 13 Sudoeste 0 -- -- 50
2020-03-03 09:00:00 6.2 0 Calma 9 Sudeste 0 -- -- 66
2020-03-03 08:00:00 6.2 7 Sudeste 15 Sudeste 0 -- -- 57
2020-03-03 07:00:00 7.7 5 Oeste 17 Sudoeste 0 -- -- 50
2020-03-03 06:00:00 8.2 8 Oeste 24 Oeste 0 -- -- 47
2020-03-03 05:00:00 7.5 8 Oeste 26 Oeste 0 -- -- 49
2020-03-03 04:00:00 7.2 7 Oeste 24 Sudoeste 0 -- -- 50
2020-03-03 03:00:00 7.8 5 Oeste 22 Noroeste 0 -- -- 46
2020-03-03 02:00:00 8.3 5 Noroeste 22 Noroeste 0 -- -- 41
2020-03-03 01:00:00 9 11 Noroeste 42 Noroeste 0 -- -- 37
2020-03-03 00:00:00 8.9 16 Noroeste 36 Norte 0 -- -- 38
2020-03-02 23:00:00 9.1 13 Noroeste 37 Noroeste 0 -- -- 38
2020-03-02 22:00:00 9.7 18 Noroeste 42 Noroeste 0 -- -- 37
2020-03-02 21:00:00 8.9 14 Noroeste 31 Norte 0 -- -- 41
2020-03-02 20:00:00 9.2 19 Noroeste 53 Noroeste 0 -- -- 46
2020-03-02 19:00:00 10.3 24 Norte 46 Oeste 0 -- -- 46
2020-03-02 18:00:00 9.9 17 Noroeste 60 Noroeste 0.2 -- -- 49
2020-03-02 17:00:00 9.6 15 Noroeste 50 Norte 0.4 -- -- 65
2020-03-02 16:00:00 12.5 35 Norte 76 Norte 0 -- -- 53
2020-03-02 15:00:00 12.3 14 Norte 48 Noroeste 0 -- -- 54
2020-03-02 14:00:00 15.1 24 Noroeste 53 Norte 0 -- -- 41
2020-03-02 13:00:00 17.3 25 Noroeste 53 Oeste 0 -- -- 32
2020-03-02 12:00:00 16.7 18 Noroeste 41 Oeste 0 -- -- 40
2020-03-02 11:00:00 14.8 21 Noroeste 63 Noroeste 0.8 -- -- 56
2020-03-02 10:00:00 15.7 23 Noroeste 66 Noroeste 0 -- -- 66
2020-03-02 09:00:00 16.3 20 Noroeste 58 Oeste 0 -- -- 57
2020-03-02 08:00:00 14.4 20 Noroeste 81 Oeste 0 -- -- 61
2020-03-02 07:00:00 14.2 30 Noroeste 66 Noroeste 0 -- -- 62
2020-03-02 06:00:00 14.1 21 Noroeste 65 Noroeste 0 -- -- 62
2020-03-02 05:00:00 15.3 12 Noroeste 77 Noroeste 0 -- -- 59
2020-03-02 04:00:00 15 5 Sur 28 Sudoeste 0 -- -- 64
2020-03-02 03:00:00 14.6 8 Sur 28 Oeste 0 -- -- 64
2020-03-02 02:00:00 13.9 8 Oeste 22 Noroeste 0 -- -- 64
2020-03-02 01:00:00 13.6 4 Oeste 23 Sur 0 -- -- 63
2020-03-02 00:00:00 13.8 8 Oeste 30 Noroeste 0 -- -- 64